Time;durP1;ratioP1;P1;durP2;ratioP2;P2;SDS_P1;SDS_P2;PMS_P1;PMS_P2;Temp;Humidity;BMP_temperature;BMP_pressure;BME280_temperature;BME280_humidity;BME280_pressure;Samples;Min_cycle;Max_cycle;Signal;HPM_P1;HPM_P2
2022/01/28 00:01:37;;;;;;;5.50;1.83;;;;;5.30;102071.00;;;;4996300;28;20308;-72
2022/01/28 00:04:24;;;;;;;9.73;1.70;;;;;5.50;102079.00;;;;5002009;28;20253;-71
2022/01/28 00:07:10;;;;;;;6.90;1.57;;;;;5.50;102080.00;;;;4997179;28;20240;-71
2022/01/28 00:09:56;;;;;;;7.00;1.60;;;;;5.40;102090.00;;;;4997274;28;20226;-72
2022/01/28 00:13:02;;;;;;;6.60;1.80;;;;;5.40;102094.00;;;;4998151;28;20221;-72
2022/01/28 00:16:13;;;;;;;11.63;2.33;;;;;5.70;102103.00;;;;4998160;28;20225;-71
2022/01/28 00:19:39;;;;;;;10.80;2.27;;;;;5.60;102122.00;;;;4999640;28;20239;-71
2022/01/28 00:40:50;;;;;;;8.40;1.43;;;;;5.10;102131.00;;;;4995021;28;20373;-72
2022/01/28 00:43:37;;;;;;;7.90;1.60;;;;;5.10;102131.00;;;;4989894;28;20230;-72
2022/01/28 00:46:23;;;;;;;5.90;1.87;;;;;5.00;102138.00;;;;4992791;28;20251;-72
2022/01/28 00:49:10;;;;;;;10.90;1.97;;;;;4.90;102139.00;;;;5005963;28;20234;-71
2022/01/28 00:51:57;;;;;;;4.87;2.00;;;;;5.00;102143.00;;;;4998377;28;20229;-72
2022/01/28 00:54:44;;;;;;;6.37;1.77;;;;;4.80;102135.00;;;;5002221;28;20702;-71
2022/01/28 00:57:30;;;;;;;5.30;1.67;;;;;4.90;102144.00;;;;5008997;28;20292;-71
2022/01/28 01:00:17;;;;;;;6.20;1.67;;;;;4.90;102144.00;;;;5005431;28;20605;-71
2022/01/28 01:03:03;;;;;;;18.67;1.80;;;;;4.90;102140.00;;;;5009193;28;20221;-72
2022/01/28 01:05:50;;;;;;;5.60;1.57;;;;;4.90;102139.00;;;;4996580;28;20288;-73
2022/01/28 01:08:38;;;;;;;5.60;1.70;;;;;4.90;102147.00;;;;5000792;28;20258;-72
2022/01/28 01:11:25;;;;;;;9.43;2.07;;;;;4.70;102147.00;;;;5008633;28;20320;-72
2022/01/28 01:14:12;;;;;;;9.30;1.93;;;;;4.80;102148.00;;;;5004152;28;20640;-72
2022/01/28 01:17:09;;;;;;;10.97;1.70;;;;;5.00;102157.00;;;;5001860;28;20230;-72
2022/01/28 01:20:09;;;;;;;8.87;1.80;;;;;5.00;102149.00;;;;5003149;28;20362;-71
2022/01/28 01:23:06;;;;;;;10.83;1.90;;;;;5.00;102143.00;;;;5002519;28;20237;-70
2022/01/28 01:26:00;;;;;;;13.40;1.80;;;;;5.00;102150.00;;;;5001547;28;20309;-72
2022/01/28 01:28:47;;;;;;;14.07;2.00;;;;;5.10;102154.00;;;;5001034;28;20353;-73
2022/01/28 01:31:35;;;;;;;10.00;1.73;;;;;5.10;102151.00;;;;5008414;28;20229;-69
2022/01/28 01:34:22;;;;;;;7.07;2.03;;;;;4.90;102163.00;;;;5008040;28;20230;-72
2022/01/28 01:37:10;;;;;;;15.40;2.10;;;;;5.00;102168.00;;;;5001043;28;20308;-73
2022/01/28 01:39:57;;;;;;;10.57;1.73;;;;;5.10;102167.00;;;;5004887;28;20887;-73
2022/01/28 01:42:49;;;;;;;7.60;2.70;;;;;5.00;102178.00;;;;5007319;28;20230;-73
2022/01/28 01:52:03;;;;;;;12.07;1.87;;;;;5.10;102183.00;;;;5006802;28;20401;-72
2022/01/28 01:54:50;;;;;;;11.50;1.83;;;;;5.20;102201.00;;;;4996218;28;20310;-73
2022/01/28 01:57:36;;;;;;;9.80;1.90;;;;;5.30;102214.00;;;;5008128;28;20369;-75
2022/01/28 02:00:25;;;;;;;15.50;2.10;;;;;5.20;102221.00;;;;5004922;28;20233;-71
2022/01/28 02:03:11;;;;;;;12.73;1.83;;;;;5.20;102227.00;;;;5006569;28;20242;-74
2022/01/28 02:05:59;;;;;;;14.70;2.10;;;;;5.20;102236.00;;;;5001225;28;21000;-73
2022/01/28 02:08:45;;;;;;;10.87;2.03;;;;;5.20;102220.00;;;;5007863;28;20225;-72
2022/01/28 02:11:32;;;;;;;13.73;2.20;;;;;5.30;102209.00;;;;5001137;28;20741;-73
2022/01/28 02:14:18;;;;;;;7.63;1.80;;;;;5.20;102220.00;;;;5004103;28;20304;-72
2022/01/28 02:17:07;;;;;;;13.83;1.90;;;;;5.10;102230.00;;;;5002230;28;20325;-72
2022/01/28 02:19:54;;;;;;;13.47;2.33;;;;;5.30;102238.00;;;;5000882;28;20250;-72
2022/01/28 02:22:41;;;;;;;13.03;2.07;;;;;5.20;102232.00;;;;5007195;28;20217;-71
2022/01/28 02:25:30;;;;;;;7.57;1.50;;;;;5.20;102240.00;;;;5000503;28;20292;-71
2022/01/28 02:28:20;;;;;;;12.50;1.90;;;;;5.20;102233.00;;;;5005977;28;20317;-71
2022/01/28 02:31:06;;;;;;;10.00;1.90;;;;;4.90;102250.00;;;;5002288;28;20253;-72
2022/01/28 02:33:56;;;;;;;8.67;1.83;;;;;4.90;102249.00;;;;4996093;28;20269;-72
2022/01/28 02:36:42;;;;;;;5.13;1.43;;;;;5.00;102252.00;;;;4991950;28;20769;-70
2022/01/28 02:39:30;;;;;;;9.13;1.40;;;;;5.00;102246.00;;;;5005232;28;20246;-73
2022/01/28 02:42:21;;;;;;;8.30;1.77;;;;;4.90;102252.00;;;;5006385;28;20241;-72
2022/01/28 02:45:08;;;;;;;6.60;1.37;;;;;5.00;102245.00;;;;5002480;28;20368;-69
2022/01/28 02:47:59;;;;;;;7.77;1.70;;;;;5.00;102252.00;;;;5000283;28;20331;-72
2022/01/28 02:50:59;;;;;;;8.90;1.50;;;;;4.90;102252.00;;;;4999854;28;20232;-71
2022/01/28 02:53:50;;;;;;;11.33;1.70;;;;;4.70;102253.00;;;;5006790;28;20334;-70
2022/01/28 02:56:38;;;;;;;10.80;2.07;;;;;4.70;102237.00;;;;5006170;28;20606;-69
2022/01/28 02:59:25;;;;;;;11.40;1.80;;;;;4.50;102262.00;;;;5006904;28;20304;-72
2022/01/28 03:02:11;;;;;;;14.27;2.10;;;;;4.60;102269.00;;;;4998512;28;20237;-72
2022/01/28 03:05:29;;;;;;;9.00;1.43;;;;;4.60;102273.00;;;;5006956;28;20229;-68
2022/01/28 03:08:15;;;;;;;7.63;1.53;;;;;4.70;102295.00;;;;5006325;28;20607;-73
2022/01/28 03:11:27;;;;;;;14.93;2.43;;;;;5.00;102295.00;;;;5000553;28;20303;-73
2022/01/28 03:14:20;;;;;;;10.40;1.83;;;;;5.00;102322.00;;;;5001143;28;20705;-71
2022/01/28 03:17:14;;;;;;;19.00;2.33;;;;;5.00;102318.00;;;;4991620;28;20379;-72
2022/01/28 03:20:17;;;;;;;13.43;2.17;;;;;4.90;102307.00;;;;5002211;28;20357;-73
2022/01/28 03:23:03;;;;;;;16.53;2.53;;;;;5.00;102315.00;;;;4992043;28;20278;-71
2022/01/28 03:25:50;;;;;;;15.93;2.53;;;;;4.90;102315.00;;;;5001827;28;20233;-71
2022/01/28 03:28:36;;;;;;;8.93;1.80;;;;;4.80;102311.00;;;;4979857;28;20714;-69
2022/01/28 03:31:24;;;;;;;8.80;1.90;;;;;4.80;102306.00;;;;4990820;28;20281;-72
2022/01/28 03:34:10;;;;;;;5.97;1.70;;;;;5.00;102310.00;;;;4989833;28;20234;-74
2022/01/28 03:36:57;;;;;;;15.20;2.80;;;;;4.90;102321.00;;;;4988899;28;20231;-71
2022/01/28 03:39:43;;;;;;;7.83;1.73;;;;;4.90;102322.00;;;;4996232;28;20238;-73
2022/01/28 03:42:30;;;;;;;14.00;2.20;;;;;5.10;102332.00;;;;4991206;28;20241;-71
2022/01/28 03:45:16;;;;;;;13.53;2.30;;;;;5.10;102342.00;;;;4993047;28;20237;-72
2022/01/28 03:48:04;;;;;;;6.80;1.70;;;;;5.00;102337.00;;;;4998712;28;20276;-71
2022/01/28 03:50:51;;;;;;;8.00;2.00;;;;;4.90;102343.00;;;;5004357;28;20233;-70
2022/01/28 03:53:37;;;;;;;16.23;2.40;;;;;4.90;102360.00;;;;5006247;28;21779;-71
2022/01/28 03:56:24;;;;;;;7.37;2.03;;;;;4.80;102365.00;;;;5005956;28;20241;-73
2022/01/28 03:59:10;;;;;;;6.93;2.20;;;;;4.90;102352.00;;;;5001536;28;20268;-72
2022/01/28 04:01:56;;;;;;;6.37;1.80;;;;;4.70;102366.00;;;;4999658;28;20226;-74
2022/01/28 04:14:11;;;;;;;7.37;1.50;;;;;4.50;102385.00;;;;4968998;28;20226;-72
2022/01/28 04:20:03;;;;;;;10.33;1.60;;;;;4.60;102369.00;;;;5005676;28;20253;-72
2022/01/28 04:22:49;;;;;;;8.57;1.60;;;;;4.70;102385.00;;;;5003258;28;20721;-72
2022/01/28 04:25:36;;;;;;;5.57;1.37;;;;;4.60;102393.00;;;;5009956;28;20238;-74
2022/01/28 04:28:22;;;;;;;9.80;1.90;;;;;4.60;102388.00;;;;5007683;28;20304;-72
2022/01/28 04:31:08;;;;;;;7.10;1.37;;;;;4.60;102385.00;;;;5009726;28;20242;-71
2022/01/28 04:33:55;;;;;;;7.70;1.67;;;;;4.70;102392.00;;;;4999150;28;20231;-68
2022/01/28 04:36:52;;;;;;;14.73;2.53;;;;;4.70;102407.00;;;;5008478;28;20230;-70
2022/01/28 04:39:46;;;;;;;11.43;1.80;;;;;4.60;102413.00;;;;5009597;28;20712;-71
2022/01/28 04:42:55;;;;;;;6.27;1.80;;;;;4.70;102416.00;;;;5008966;28;20225;-73
2022/01/28 04:45:48;;;;;;;13.07;2.03;;;;;4.70;102417.00;;;;5003581;28;20603;-73
2022/01/28 04:48:40;;;;;;;13.10;1.83;;;;;4.70;102437.00;;;;5009257;28;20226;-72
2022/01/28 04:51:44;;;;;;;11.50;1.63;;;;;4.70;102431.00;;;;5003073;28;20247;-75
2022/01/28 04:54:50;;;;;;;7.60;1.63;;;;;4.70;102431.00;;;;5012563;28;20623;-73
2022/01/28 04:57:49;;;;;;;6.57;2.27;;;;;4.60;102431.00;;;;5011258;28;20236;-73
2022/01/28 05:00:46;;;;;;;11.03;2.30;;;;;4.60;102442.00;;;;5006302;28;20745;-72
2022/01/28 05:03:54;;;;;;;13.00;2.03;;;;;4.60;102433.00;;;;5004045;28;20230;-72
2022/01/28 05:07:07;;;;;;;12.30;2.20;;;;;4.70;102430.00;;;;5008330;28;20474;-70
2022/01/28 05:16:44;;;;;;;6.40;1.80;;;;;4.60;102453.00;;;;4994976;28;20296;-73
2022/01/28 05:26:21;;;;;;;8.87;1.80;;;;;4.40;102467.00;;;;5000960;28;20238;-70
2022/01/28 05:29:08;;;;;;;4.10;1.40;;;;;4.30;102464.00;;;;5000821;28;20234;-73
2022/01/28 05:31:54;;;;;;;13.10;2.17;;;;;4.30;102455.00;;;;5003552;28;20618;-72
2022/01/28 05:34:41;;;;;;;5.03;2.13;;;;;4.30;102468.00;;;;4998026;28;20234;-70
2022/01/28 05:37:27;;;;;;;10.53;1.73;;;;;4.30;102463.00;;;;5002940;28;20236;-75
2022/01/28 05:40:18;;;;;;;8.90;1.87;;;;;4.30;102470.00;;;;4998521;28;20242;-72
2022/01/28 05:43:06;;;;;;;7.43;1.80;;;;;4.40;102474.00;;;;5002847;28;20253;-74
2022/01/28 05:45:52;;;;;;;10.70;1.40;;;;;4.50;102487.00;;;;5000859;28;20808;-72
2022/01/28 05:48:38;;;;;;;12.60;2.40;;;;;4.50;102489.00;;;;5005939;28;20233;-72
2022/01/28 05:51:25;;;;;;;12.07;2.07;;;;;4.60;102483.00;;;;5000102;28;20305;-74
2022/01/28 05:54:12;;;;;;;9.80;1.70;;;;;4.50;102495.00;;;;4994493;28;20238;-73
2022/01/28 05:56:58;;;;;;;14.83;1.90;;;;;4.40;102496.00;;;;5001473;28;20225;-72
2022/01/28 05:59:46;;;;;;;8.47;2.00;;;;;4.50;102507.00;;;;5001476;28;20221;-75
2022/01/28 06:02:32;;;;;;;13.17;2.10;;;;;4.50;102511.00;;;;5005741;28;20231;-74
2022/01/28 06:05:19;;;;;;;4.10;1.53;;;;;4.40;102507.00;;;;5011171;28;20250;-74
2022/01/28 06:08:05;;;;;;;13.57;1.97;;;;;4.50;102507.00;;;;5000799;28;20230;-75
2022/01/28 06:10:51;;;;;;;9.00;1.90;;;;;4.30;102512.00;;;;5004969;28;20230;-75
2022/01/28 06:13:37;;;;;;;10.23;1.90;;;;;4.40;102523.00;;;;5007815;28;20222;-75
2022/01/28 06:16:25;;;;;;;9.57;2.30;;;;;4.40;102518.00;;;;4997252;28;20238;-73
2022/01/28 06:19:11;;;;;;;5.73;1.63;;;;;4.40;102529.00;;;;5003650;28;20656;-74
2022/01/28 06:21:57;;;;;;;11.03;1.83;;;;;4.40;102541.00;;;;5001375;28;20324;-74
2022/01/28 06:24:44;;;;;;;8.17;1.90;;;;;4.50;102533.00;;;;4997481;28;20822;-74
2022/01/28 06:27:30;;;;;;;7.63;1.80;;;;;4.50;102534.00;;;;5005859;28;21247;-74
2022/01/28 06:30:17;;;;;;;8.00;2.00;;;;;4.60;102544.00;;;;5007019;28;20237;-73
2022/01/28 06:33:04;;;;;;;8.17;2.03;;;;;4.50;102548.00;;;;5002218;28;21080;-74
2022/01/28 06:35:50;;;;;;;10.73;3.63;;;;;4.50;102564.00;;;;4994147;28;20234;-74
2022/01/28 06:38:37;;;;;;;12.90;2.33;;;;;4.50;102565.00;;;;5007079;28;20225;-75
2022/01/28 06:41:23;;;;;;;16.67;2.00;;;;;4.40;102573.00;;;;4997326;28;20246;-75
2022/01/28 06:44:10;;;;;;;12.50;2.10;;;;;4.20;102574.00;;;;5006125;28;20683;-75
2022/01/28 06:46:57;;;;;;;6.53;1.60;;;;;4.20;102576.00;;;;4994269;28;20229;-74
2022/01/28 06:49:49;;;;;;;7.43;1.53;;;;;4.10;102575.00;;;;5006024;28;20231;-73
2022/01/28 06:52:36;;;;;;;9.93;2.03;;;;;4.30;102575.00;;;;5006612;28;20385;-74
2022/01/28 06:55:22;;;;;;;10.30;1.70;;;;;4.30;102584.00;;;;5004931;28;20296;-74
2022/01/28 06:58:09;;;;;;;8.43;1.67;;;;;4.20;102580.00;;;;4997805;28;20339;-73
2022/01/28 07:00:56;;;;;;;11.93;2.00;;;;;4.40;102581.00;;;;5017541;28;20879;-73
2022/01/28 07:03:42;;;;;;;12.23;2.30;;;;;4.30;102603.00;;;;5007927;28;20748;-73
2022/01/28 07:06:30;;;;;;;9.83;2.03;;;;;4.30;102605.00;;;;4998771;28;20246;-72
2022/01/28 07:09:17;;;;;;;6.57;1.90;;;;;4.20;102605.00;;;;5006432;28;20258;-73
2022/01/28 07:12:05;;;;;;;3.43;1.30;;;;;4.20;102620.00;;;;4994090;28;20230;-72
2022/01/28 07:14:53;;;;;;;7.80;2.10;;;;;4.30;102612.00;;;;4990094;28;20233;-73
2022/01/28 07:17:39;;;;;;;7.10;1.67;;;;;4.30;102618.00;;;;4994457;28;20313;-73
2022/01/28 07:20:25;;;;;;;12.30;1.80;;;;;4.40;102613.00;;;;5001340;28;20238;-73
2022/01/28 07:23:13;;;;;;;13.33;1.97;;;;;4.30;102620.00;;;;5002054;28;20288;-71
2022/01/28 07:25:59;;;;;;;6.90;1.87;;;;;4.40;102621.00;;;;5002291;28;20241;-71
2022/01/28 07:28:46;;;;;;;11.37;2.20;;;;;4.60;102631.00;;;;4998531;28;20242;-71
2022/01/28 07:31:35;;;;;;;11.17;2.00;;;;;4.50;102623.00;;;;5000165;28;20225;-71
2022/01/28 07:34:22;;;;;;;9.97;1.80;;;;;4.60;102626.00;;;;5004734;28;20357;-70
2022/01/28 07:37:08;;;;;;;17.70;2.47;;;;;4.50;102635.00;;;;5006528;28;20645;-73
2022/01/28 07:40:02;;;;;;;10.37;2.13;;;;;4.60;102623.00;;;;5000373;28;20233;-71
2022/01/28 07:42:48;;;;;;;7.37;2.13;;;;;4.60;102640.00;;;;5000339;28;20289;-70
2022/01/28 07:45:35;;;;;;;8.60;2.13;;;;;4.70;102641.00;;;;4997685;28;20238;-71
2022/01/28 07:48:21;;;;;;;11.20;2.60;;;;;4.60;102645.00;;;;5001463;28;20229;-70
2022/01/28 07:51:07;;;;;;;14.73;2.77;;;;;4.60;102648.00;;;;4998612;28;20314;-71
2022/01/28 07:53:53;;;;;;;6.37;2.10;;;;;4.60;102652.00;;;;4995655;28;20233;-72
2022/01/28 07:56:42;;;;;;;10.37;1.80;;;;;4.60;102651.00;;;;4996767;28;20230;-72
2022/01/28 07:59:28;;;;;;;8.80;2.10;;;;;4.70;102651.00;;;;5002360;28;20238;-71
2022/01/28 08:02:15;;;;;;;12.63;2.17;;;;;4.80;102667.00;;;;5002143;28;20251;-71
2022/01/28 08:05:02;;;;;;;16.93;2.97;;;;;4.80;102663.00;;;;5000386;28;20229;-71
2022/01/28 08:07:48;;;;;;;16.70;2.57;;;;;4.80;102666.00;;;;4998540;28;20320;-71
2022/01/28 08:10:35;;;;;;;6.27;1.93;;;;;4.90;102662.00;;;;5003070;28;20230;-71
2022/01/28 08:13:22;;;;;;;7.57;1.97;;;;;4.80;102672.00;;;;5006009;28;20234;-70
2022/01/28 08:16:09;;;;;;;12.30;2.80;;;;;4.80;102678.00;;;;5000316;28;20675;-71
2022/01/28 08:18:55;;;;;;;9.23;2.20;;;;;5.00;102685.00;;;;4991398;28;24054;-72
2022/01/28 08:21:41;;;;;;;10.80;2.63;;;;;4.90;102688.00;;;;5005254;28;20373;-72
2022/01/28 08:24:28;;;;;;;6.83;2.17;;;;;4.70;102693.00;;;;4991172;28;20227;-73
2022/01/28 08:27:14;;;;;;;9.60;2.43;;;;;5.00;102699.00;;;;4995426;28;20253;-71
2022/01/28 08:30:01;;;;;;;14.53;2.33;;;;;4.70;102693.00;;;;4992601;28;20222;-67
2022/01/28 08:32:49;;;;;;;10.10;2.00;;;;;4.70;102694.00;;;;5005296;28;20253;-72
2022/01/28 08:35:38;;;;;;;10.17;2.10;;;;;4.40;102702.00;;;;5000142;28;20720;-73
2022/01/28 08:38:31;;;;;;;5.67;1.83;;;;;4.40;102714.00;;;;5003789;28;20871;-73
2022/01/28 08:41:18;;;;;;;12.27;2.67;;;;;4.50;102729.00;;;;4975389;28;20259;-74
2022/01/28 08:44:04;;;;;;;6.90;1.87;;;;;4.70;102732.00;;;;5002793;28;20325;-73
2022/01/28 08:46:52;;;;;;;13.23;2.10;;;;;4.70;102730.00;;;;4992472;28;20229;-73
2022/01/28 08:49:39;;;;;;;12.87;2.60;;;;;4.70;102724.00;;;;5002896;28;20226;-72
2022/01/28 08:52:25;;;;;;;10.47;3.17;;;;;4.90;102723.00;;;;5000416;28;20646;-68
2022/01/28 08:55:11;;;;;;;15.83;2.53;;;;;4.90;102737.00;;;;5003458;28;20882;-75
2022/01/28 08:57:58;;;;;;;15.83;2.33;;;;;5.00;102730.00;;;;4997442;28;20366;-72
2022/01/28 09:00:47;;;;;;;12.00;2.17;;;;;5.10;102735.00;;;;5002931;28;20334;-73
2022/01/28 09:03:35;;;;;;;10.53;2.27;;;;;5.10;102728.00;;;;5002455;28;20241;-73
2022/01/28 09:06:21;;;;;;;9.70;2.90;;;;;5.10;102726.00;;;;4996025;28;20310;-73
2022/01/28 09:09:08;;;;;;;9.03;2.67;;;;;5.10;102727.00;;;;5003296;28;20237;-74
2022/01/28 09:12:07;;;;;;;11.80;2.50;;;;;5.20;102729.00;;;;5001160;28;20234;-72
2022/01/28 09:14:53;;;;;;;7.80;2.63;;;;;5.30;102735.00;;;;4997039;28;20234;-72
2022/01/28 09:17:57;;;;;;;14.73;3.10;;;;;5.20;102742.00;;;;5000117;28;20240;-72
2022/01/28 09:20:47;;;;;;;15.30;3.10;;;;;5.30;102739.00;;;;4989324;28;20366;-69
2022/01/28 09:23:33;;;;;;;16.57;3.03;;;;;5.20;102738.00;;;;5006630;28;20241;-71
2022/01/28 09:26:20;;;;;;;6.73;2.40;;;;;5.30;102733.00;;;;5003183;28;20233;-73
2022/01/28 09:29:06;;;;;;;7.17;2.57;;;;;5.50;102741.00;;;;5003730;28;20222;-71
2022/01/28 09:31:52;;;;;;;17.13;2.83;;;;;5.60;102736.00;;;;4996164;28;20789;-72
2022/01/28 09:34:39;;;;;;;20.17;2.90;;;;;5.60;102735.00;;;;4998131;28;20241;-72
2022/01/28 09:37:26;;;;;;;13.40;2.50;;;;;5.60;102741.00;;;;5007991;28;20234;-73
2022/01/28 09:40:14;;;;;;;12.30;2.43;;;;;5.70;102741.00;;;;5008071;28;20234;-73
2022/01/28 09:43:01;;;;;;;9.67;2.23;;;;;5.80;102745.00;;;;5003155;28;20780;-73
2022/01/28 09:45:48;;;;;;;11.00;3.03;;;;;5.90;102749.00;;;;5000479;28;20247;-71
2022/01/28 09:48:34;;;;;;;12.43;2.57;;;;;6.00;102746.00;;;;5008049;28;20229;-73
2022/01/28 09:51:21;;;;;;;12.73;2.67;;;;;6.00;102758.00;;;;5000822;28;20230;-73
2022/01/28 09:54:09;;;;;;;15.07;2.97;;;;;6.20;102755.00;;;;5003678;28;20237;-72
2022/01/28 09:56:55;;;;;;;13.80;3.00;;;;;6.30;102758.00;;;;5001829;28;20225;-72
2022/01/28 09:59:42;;;;;;;9.23;2.00;;;;;6.40;102758.00;;;;5000763;28;20230;-69
2022/01/28 10:02:46;;;;;;;12.10;2.73;;;;;6.30;102760.00;;;;5004393;28;20297;-72
2022/01/28 10:05:34;;;;;;;13.57;2.80;;;;;6.50;102771.00;;;;5000374;28;20233;-69
2022/01/28 10:08:23;;;;;;;13.00;2.80;;;;;6.50;102774.00;;;;5003540;28;20318;-73
2022/01/28 10:11:11;;;;;;;18.50;3.00;;;;;6.60;102773.00;;;;5005715;28;20234;-73
2022/01/28 10:14:08;;;;;;;15.07;2.17;;;;;6.70;102771.00;;;;4997623;28;20226;-73
2022/01/28 10:16:59;;;;;;;10.60;2.13;;;;;6.80;102772.00;;;;5000913;28;20897;-72
2022/01/28 10:19:45;;;;;;;14.73;2.73;;;;;6.90;102791.00;;;;5001498;28;20644;-71
2022/01/28 10:22:32;;;;;;;16.57;2.77;;;;;7.10;102774.00;;;;5006932;28;20365;-72
2022/01/28 10:25:38;;;;;;;9.37;2.47;;;;;7.10;102773.00;;;;5007204;28;20234;-72
2022/01/28 10:28:25;;;;;;;17.03;2.97;;;;;7.20;102783.00;;;;5001418;28;20237;-73
2022/01/28 10:31:11;;;;;;;14.57;2.43;;;;;7.40;102772.00;;;;5001919;28;20250;-73
2022/01/28 10:34:10;;;;;;;15.43;2.37;;;;;7.50;102775.00;;;;5002318;28;20281;-73
2022/01/28 10:37:12;;;;;;;11.33;2.73;;;;;7.60;102772.00;;;;5007223;28;20292;-72
2022/01/28 10:40:00;;;;;;;11.80;2.20;;;;;7.60;102782.00;;;;5002749;28;20225;-74
2022/01/28 10:42:51;;;;;;;12.37;2.77;;;;;7.60;102771.00;;;;5004685;28;20237;-71
2022/01/28 10:45:39;;;;;;;13.20;2.57;;;;;7.70;102792.00;;;;5006274;28;20257;-72
2022/01/28 10:48:25;;;;;;;16.57;2.40;;;;;7.50;102784.00;;;;5001258;28;20723;-73
2022/01/28 10:51:12;;;;;;;12.53;2.40;;;;;7.50;102777.00;;;;4999532;28;20286;-72
2022/01/28 10:54:03;;;;;;;8.60;2.03;;;;;7.60;102783.00;;;;4993707;28;20307;-74
2022/01/28 10:56:53;;;;;;;14.97;2.60;;;;;7.50;102781.00;;;;5006553;28;20324;-73
2022/01/28 10:59:41;;;;;;;16.23;2.80;;;;;7.30;102784.00;;;;5000484;28;20238;-72
2022/01/28 11:02:30;;;;;;;10.20;2.20;;;;;7.50;102786.00;;;;4990816;28;20242;-71
2022/01/28 11:05:17;;;;;;;12.40;2.73;;;;;7.40;102800.00;;;;4990232;28;20231;-70
2022/01/28 11:08:06;;;;;;;13.63;2.83;;;;;7.60;102787.00;;;;4992777;28;20745;-70
2022/01/28 11:10:52;;;;;;;9.67;2.00;;;;;7.40;102791.00;;;;4992046;28;20225;-71
2022/01/28 11:13:41;;;;;;;14.47;2.50;;;;;7.20;102790.00;;;;4997021;28;20233;-74
2022/01/28 11:16:27;;;;;;;10.13;2.20;;;;;7.50;102795.00;;;;4999507;28;20242;-74
2022/01/28 11:19:18;;;;;;;15.20;2.70;;;;;7.60;102806.00;;;;4994820;28;20303;-75
2022/01/28 11:22:36;;;;;;;20.83;2.47;;;;;7.50;102801.00;;;;4994691;28;20226;-74
2022/01/28 11:25:37;;;;;;;10.17;2.60;;;;;7.70;102790.00;;;;4994538;28;20308;-74
2022/01/28 11:28:39;;;;;;;13.70;2.47;;;;;7.70;102794.00;;;;4996781;28;20358;-72
2022/01/28 11:31:43;;;;;;;15.00;2.40;;;;;7.70;102792.00;;;;4991173;28;20238;-71
2022/01/28 11:34:32;;;;;;;11.93;2.40;;;;;7.70;102764.00;;;;4996433;28;20725;-73
2022/01/28 11:37:28;;;;;;;18.27;3.20;;;;;7.80;102758.00;;;;5004490;28;20238;-72
2022/01/28 11:40:16;;;;;;;11.43;2.57;;;;;7.70;102780.00;;;;5001905;28;20237;-75
2022/01/28 11:43:17;;;;;;;14.23;2.33;;;;;7.80;102787.00;;;;4988833;28;20245;-74
2022/01/28 11:46:07;;;;;;;12.07;2.83;;;;;7.80;102785.00;;;;4995313;28;20290;-74
2022/01/28 11:49:24;;;;;;;19.63;3.00;;;;;8.00;102769.00;;;;4996676;28;20230;-75
2022/01/28 11:52:24;;;;;;;12.63;2.37;;;;;8.10;102772.00;;;;5001717;28;20230;-74
2022/01/28 11:55:32;;;;;;;13.83;2.93;;;;;8.30;102758.00;;;;4996667;28;20249;-74
2022/01/28 11:58:18;;;;;;;15.87;2.43;;;;;8.40;102772.00;;;;4996384;28;20238;-74
2022/01/28 12:01:04;;;;;;;13.93;2.57;;;;;8.60;102765.00;;;;5001498;28;20230;-75
2022/01/28 12:03:50;;;;;;;17.67;4.20;;;;;8.70;102774.00;;;;4999750;28;20233;-76
2022/01/28 12:06:39;;;;;;;17.77;4.00;;;;;8.30;102756.00;;;;4990450;28;20254;-72
2022/01/28 12:09:27;;;;;;;10.07;2.67;;;;;8.30;102751.00;;;;5002077;28;20231;-72
2022/01/28 12:12:19;;;;;;;13.50;3.37;;;;;8.50;102751.00;;;;4996498;28;20246;-72
2022/01/28 12:15:12;;;;;;;15.00;2.43;;;;;8.70;102761.00;;;;4992116;28;20282;-72
2022/01/28 12:18:07;;;;;;;15.77;2.87;;;;;8.80;102762.00;;;;4995438;28;20244;-73
2022/01/28 12:21:15;;;;;;;15.83;2.93;;;;;8.80;102758.00;;;;4997886;28;20242;-73
2022/01/28 12:24:33;;;;;;;16.03;3.00;;;;;9.00;102748.00;;;;4996391;28;20305;-70
2022/01/28 12:27:21;;;;;;;11.00;2.30;;;;;9.20;102733.00;;;;4999632;28;20234;-73
2022/01/28 12:30:14;;;;;;;9.40;2.50;;;;;9.40;102731.00;;;;4990584;28;20595;-76
2022/01/28 12:33:00;;;;;;;13.23;2.67;;;;;9.80;102735.00;;;;4995067;28;20282;-76
2022/01/28 12:35:50;;;;;;;15.70;2.53;;;;;9.90;102737.00;;;;5002766;28;20229;-71
2022/01/28 12:38:42;;;;;;;9.13;2.07;;;;;9.90;102744.00;;;;5012289;28;20289;-75
2022/01/28 12:41:40;;;;;;;10.40;2.03;;;;;9.90;102729.00;;;;5004482;28;20251;-75
2022/01/28 12:44:26;;;;;;;14.30;2.67;;;;;10.00;102724.00;;;;5004915;28;20271;-73
2022/01/28 12:47:13;;;;;;;7.17;2.13;;;;;9.80;102744.00;;;;5014769;28;20290;-75
2022/01/28 12:50:03;;;;;;;9.63;2.53;;;;;9.90;102739.00;;;;5015651;28;21008;-75
2022/01/28 12:52:51;;;;;;;9.93;1.93;;;;;9.90;102732.00;;;;4992617;28;20223;-73
2022/01/28 12:55:37;;;;;;;15.30;2.37;;;;;10.20;102726.00;;;;5006858;28;20231;-74
2022/01/28 12:58:40;;;;;;;14.47;2.23;;;;;10.10;102723.00;;;;5000647;28;20248;-73
2022/01/28 13:01:27;;;;;;;9.87;2.50;;;;;10.10;102712.00;;;;5006007;28;20229;-74
2022/01/28 13:04:16;;;;;;;8.60;2.10;;;;;10.20;102706.00;;;;5006200;28;20244;-72
2022/01/28 13:10:08;;;;;;;13.93;2.73;;;;;10.10;102717.00;;;;5006071;28;20243;-75
2022/01/28 13:13:03;;;;;;;19.07;2.40;;;;;9.60;102725.00;;;;5007594;28;20285;-75
2022/01/28 13:15:55;;;;;;;9.03;2.30;;;;;9.40;102717.00;;;;5000922;28;20228;-74
2022/01/28 13:18:55;;;;;;;10.87;2.00;;;;;9.00;102718.00;;;;5002184;28;20647;-73
2022/01/28 13:21:43;;;;;;;12.27;2.67;;;;;8.90;102716.00;;;;5008270;28;20355;-74
2022/01/28 13:24:30;;;;;;;13.00;2.10;;;;;8.80;102717.00;;;;5003247;28;20242;-77
2022/01/28 13:27:17;;;;;;;14.67;2.93;;;;;8.70;102700.00;;;;4997042;28;20232;-75
2022/01/28 13:30:12;;;;;;;14.03;2.70;;;;;8.50;102709.00;;;;5001151;28;20908;-75
2022/01/28 13:33:04;;;;;;;10.73;2.80;;;;;8.40;102701.00;;;;4999051;28;20277;-76
2022/01/28 13:35:56;;;;;;;18.10;3.10;;;;;8.50;102704.00;;;;5007464;28;20227;-75
2022/01/28 13:38:42;;;;;;;16.90;2.40;;;;;8.70;102705.00;;;;5006683;28;20271;-72
2022/01/28 13:41:34;;;;;;;13.27;2.43;;;;;8.90;102702.00;;;;4991044;28;20261;-75
2022/01/28 13:44:22;;;;;;;12.13;2.67;;;;;9.00;102705.00;;;;5005647;28;20313;-74
2022/01/28 13:47:10;;;;;;;14.47;2.57;;;;;9.20;102701.00;;;;5001051;28;20305;-73
2022/01/28 13:50:01;;;;;;;9.77;2.30;;;;;9.40;102698.00;;;;5001650;28;20228;-72
2022/01/28 13:52:52;;;;;;;11.90;2.40;;;;;9.20;102695.00;;;;5005913;28;20238;-72
2022/01/28 13:55:38;;;;;;;16.33;2.50;;;;;9.10;102701.00;;;;5004192;28;20820;-73
2022/01/28 13:58:24;;;;;;;10.33;2.43;;;;;8.90;102696.00;;;;5006038;28;20273;-74
2022/01/28 14:01:11;;;;;;;8.60;1.83;;;;;8.90;102692.00;;;;5003090;28;20281;-73
2022/01/28 14:04:00;;;;;;;12.30;2.10;;;;;8.70;102689.00;;;;5002284;28;20602;-72
2022/01/28 14:06:48;;;;;;;12.63;2.30;;;;;8.60;102698.00;;;;4996908;28;20221;-72
2022/01/28 14:09:43;;;;;;;10.87;1.87;;;;;8.60;102693.00;;;;5008892;28;20297;-72
2022/01/28 14:12:38;;;;;;;20.03;2.50;;;;;8.40;102691.00;;;;5007202;28;20290;-73
2022/01/28 14:15:28;;;;;;;12.60;2.50;;;;;8.40;102686.00;;;;5006372;28;20281;-73
2022/01/28 14:18:15;;;;;;;13.83;2.10;;;;;8.20;102692.00;;;;5007458;28;20222;-72
2022/01/28 14:21:01;;;;;;;12.40;2.70;;;;;8.00;102696.00;;;;4998794;28;20721;-75
2022/01/28 14:23:48;;;;;;;11.77;2.63;;;;;8.10;102686.00;;;;4999100;28;20226;-76
2022/01/28 14:26:40;;;;;;;10.37;2.40;;;;;8.30;102697.00;;;;5006538;28;20296;-76
2022/01/28 14:29:48;;;;;;;6.80;1.90;;;;;8.30;102689.00;;;;4997489;28;20233;-75
2022/01/28 14:32:35;;;;;;;13.03;2.33;;;;;8.30;102690.00;;;;5006206;28;20352;-75
2022/01/28 14:35:21;;;;;;;10.13;2.47;;;;;8.30;102694.00;;;;4999305;28;20317;-76
2022/01/28 14:38:08;;;;;;;11.97;2.53;;;;;8.30;102683.00;;;;5004715;28;20243;-75
2022/01/28 14:40:56;;;;;;;4.77;1.63;;;;;8.20;102693.00;;;;4999890;28;20230;-74
2022/01/28 14:43:43;;;;;;;8.90;2.07;;;;;8.20;102703.00;;;;5004169;28;20363;-74
2022/01/28 14:46:29;;;;;;;13.47;2.27;;;;;8.20;102702.00;;;;4997681;28;20323;-72
2022/01/28 14:49:15;;;;;;;10.70;2.63;;;;;8.20;102717.00;;;;5005305;28;20715;-69
2022/01/28 14:52:06;;;;;;;12.77;2.23;;;;;8.00;102717.00;;;;4994228;28;20257;-70
2022/01/28 14:54:53;;;;;;;9.60;1.80;;;;;8.10;102707.00;;;;4997493;28;20226;-72
2022/01/28 14:57:40;;;;;;;13.30;2.40;;;;;8.00;102701.00;;;;5001582;28;20234;-71